Time;durP1;ratioP1;P1;durP2;ratioP2;P2;SDS_P1;SDS_P2;PMS_P1;PMS_P2;Temp;Humidity;BMP_temperature;BMP_pressure;BME280_temperature;BME280_humidity;BME280_pressure;Samples;Min_cycle;Max_cycle;Signal;HPM_P1;HPM_P2
2021/05/22 00:01:23;;;;;;;;;;;9.90;99.90;;;;;;10528689;28;20018;-67
2021/05/22 00:06:24;;;;;;;;;;;10.00;99.90;;;;;;10515833;28;19968;-66
2021/05/22 00:11:26;;;;;;;;;;;10.00;99.90;;;;;;10515565;28;19935;-66
2021/05/22 00:16:29;;;;;;;;;;;10.00;99.90;;;;;;10505237;28;20028;-66
2021/05/22 00:21:30;;;;;;;;;;;10.10;99.90;;;;;;10508643;28;20012;-66
2021/05/22 00:26:32;;;;;;;;;;;10.00;99.90;;;;;;10524330;28;19925;-66
2021/05/22 00:31:34;;;;;;;;;;;9.80;99.90;;;;;;10496121;28;20011;-66
2021/05/22 00:36:36;;;;;;;;;;;9.80;99.90;;;;;;10528820;28;20022;-67
2021/05/22 00:41:38;;;;;;;;;;;9.60;99.90;;;;;;10511900;28;20020;-66
2021/05/22 00:46:39;;;;;;;;;;;9.60;99.90;;;;;;10520805;28;20023;-66
2021/05/22 00:51:42;;;;;;;;;;;9.30;99.90;;;;;;10520948;28;20007;-66
2021/05/22 00:56:44;;;;;;;;;;;9.10;99.90;;;;;;10502427;28;19960;-66
2021/05/22 01:01:46;;;;;;;;;;;8.80;99.90;;;;;;10525360;28;19924;-66
2021/05/22 01:06:48;;;;;;;;;;;8.70;99.90;;;;;;10525019;28;19999;-67
2021/05/22 01:11:54;;;;;;;;;;;8.80;99.90;;;;;;10520841;28;19982;-67
2021/05/22 01:16:58;;;;;;;;;;;9.10;99.90;;;;;;10502100;28;19932;-66
2021/05/22 01:22:00;;;;;;;;;;;9.10;99.90;;;;;;10512693;28;20008;-66
2021/05/22 01:27:01;;;;;;;;;;;9.10;99.90;;;;;;10467266;28;20384;-66
2021/05/22 01:32:04;;;;;;;;;;;9.00;99.90;;;;;;10494781;28;19925;-66
2021/05/22 01:37:06;;;;;;;;;;;8.80;99.90;;;;;;10515328;28;19930;-67
2021/05/22 01:42:09;;;;;;;;;;;8.70;99.90;;;;;;10530266;28;19966;-67
2021/05/22 01:47:11;;;;;;;;;;;8.50;99.90;;;;;;10526815;28;19928;-67
2021/05/22 01:52:13;;;;;;;;;;;8.60;99.90;;;;;;10491459;28;19972;-66
2021/05/22 01:57:15;;;;;;;;;;;8.60;99.90;;;;;;10489959;28;19928;-67
2021/05/22 02:02:21;;;;;;;;;;;8.70;99.90;;;;;;10509132;28;19928;-66
2021/05/22 02:07:23;;;;;;;;;;;8.70;99.90;;;;;;10504338;28;19951;-67
2021/05/22 02:12:25;;;;;;;;;;;8.60;99.90;;;;;;10516609;28;20019;-66
2021/05/22 02:17:27;;;;;;;;;;;8.50;99.90;;;;;;10510836;28;19977;-67
2021/05/22 02:22:31;;;;;;;;;;;8.30;99.90;;;;;;10479746;28;20011;-66
2021/05/22 02:27:33;;;;;;;;;;;8.10;99.90;;;;;;10492864;28;20353;-66
2021/05/22 02:32:36;;;;;;;;;;;8.10;99.90;;;;;;10523709;28;19931;-66
2021/05/22 02:37:39;;;;;;;;;;;8.10;99.90;;;;;;10517829;28;19975;-66
2021/05/22 02:42:50;;;;;;;;;;;8.30;99.90;;;;;;10499511;28;19974;-67
2021/05/22 02:47:54;;;;;;;;;;;8.50;99.90;;;;;;10529292;28;19951;-66
2021/05/22 02:52:56;;;;;;;;;;;8.50;99.90;;;;;;10518162;28;19990;-66
2021/05/22 02:57:59;;;;;;;;;;;8.50;99.90;;;;;;10520004;28;19924;-67
2021/05/22 03:03:01;;;;;;;;;;;8.50;99.90;;;;;;10512981;28;19963;-66
2021/05/22 03:08:02;;;;;;;;;;;8.40;99.90;;;;;;10502760;28;19924;-66
2021/05/22 03:13:08;;;;;;;;;;;8.50;99.90;;;;;;10489183;28;19977;-66
2021/05/22 03:18:09;;;;;;;;;;;8.50;99.90;;;;;;10496693;28;19924;-67
2021/05/22 03:23:12;;;;;;;;;;;8.60;99.90;;;;;;10504627;28;19931;-66
2021/05/22 03:28:14;;;;;;;;;;;8.60;99.90;;;;;;10515228;28;20024;-66
2021/05/22 03:33:16;;;;;;;;;;;8.60;99.90;;;;;;10510599;28;19926;-66
2021/05/22 03:38:18;;;;;;;;;;;8.60;99.90;;;;;;10502591;28;20015;-66
2021/05/22 03:43:19;;;;;;;;;;;8.80;99.90;;;;;;10497125;28;20019;-66
2021/05/22 03:48:21;;;;;;;;;;;8.90;99.90;;;;;;10521522;28;20022;-66
2021/05/22 03:53:23;;;;;;;;;;;9.00;99.90;;;;;;10525794;28;19967;-66
2021/05/22 03:58:25;;;;;;;;;;;9.20;99.90;;;;;;10514099;28;20026;-66
2021/05/22 04:03:27;;;;;;;;;;;9.30;99.90;;;;;;10492933;28;19998;-66
2021/05/22 04:08:29;;;;;;;;;;;9.30;99.90;;;;;;10485790;28;19931;-66
2021/05/22 04:13:30;;;;;;;;;;;9.40;99.90;;;;;;10479141;28;19933;-67
2021/05/22 04:18:32;;;;;;;;;;;9.50;99.90;;;;;;10497490;28;19934;-66
2021/05/22 04:23:35;;;;;;;;;;;9.40;99.90;;;;;;10495004;28;20003;-66
2021/05/22 04:28:37;;;;;;;;;;;9.50;99.90;;;;;;10505691;28;20015;-66
2021/05/22 04:33:39;;;;;;;;;;;9.60;99.90;;;;;;10498055;28;19924;-67
2021/05/22 04:38:41;;;;;;;;;;;9.70;99.90;;;;;;10498879;28;20050;-66
2021/05/22 04:43:43;;;;;;;;;;;9.80;99.90;;;;;;10520207;28;19935;-66
2021/05/22 04:48:45;;;;;;;;;;;9.80;99.90;;;;;;10497961;28;19968;-66
2021/05/22 04:53:47;;;;;;;;;;;10.60;99.90;;;;;;10514806;28;20003;-66
2021/05/22 04:58:48;;;;;;;;;;;10.90;99.90;;;;;;10488842;28;19979;-66
2021/05/22 05:03:50;;;;;;;;;;;10.40;99.90;;;;;;10503032;28;20432;-66
2021/05/22 05:08:52;;;;;;;;;;;10.30;99.90;;;;;;10492042;28;20202;-66
2021/05/22 05:13:54;;;;;;;;;;;10.20;99.90;;;;;;10529293;28;20012;-66
2021/05/22 05:18:56;;;;;;;;;;;10.20;99.90;;;;;;10526199;28;20439;-66
2021/05/22 05:23:58;;;;;;;;;;;10.00;99.90;;;;;;10518583;28;20012;-66
2021/05/22 05:28:59;;;;;;;;;;;10.10;99.90;;;;;;10510421;28;19982;-66
2021/05/22 05:34:01;;;;;;;;;;;9.90;99.90;;;;;;10522096;28;20464;-66
2021/05/22 05:39:04;;;;;;;;;;;10.00;99.90;;;;;;10519574;28;19935;-67
2021/05/22 05:44:06;;;;;;;;;;;10.10;99.90;;;;;;10520290;28;20604;-66
2021/05/22 05:49:08;;;;;;;;;;;10.30;99.90;;;;;;10528953;28;19967;-66
2021/05/22 05:54:09;;;;;;;;;;;10.40;99.90;;;;;;10515466;28;20399;-66
2021/05/22 05:59:11;;;;;;;;;;;10.40;99.90;;;;;;10509906;28;20510;-66
2021/05/22 06:04:13;;;;;;;;;;;10.40;99.90;;;;;;10490869;28;19925;-66
2021/05/22 06:09:15;;;;;;;;;;;10.60;99.90;;;;;;10514474;28;20011;-66
2021/05/22 06:14:27;;;;;;;;;;;11.20;99.90;;;;;;10516262;28;19929;-66
2021/05/22 06:19:29;;;;;;;;;;;12.30;99.90;;;;;;10510659;28;20347;-66
2021/05/22 06:24:30;;;;;;;;;;;12.30;99.90;;;;;;10515803;28;20345;-66
2021/05/22 06:29:32;;;;;;;;;;;12.10;99.90;;;;;;10500416;28;20384;-66
2021/05/22 06:34:35;;;;;;;;;;;11.80;99.90;;;;;;10496249;28;19967;-66
2021/05/22 06:39:36;;;;;;;;;;;11.70;99.90;;;;;;10516554;28;19928;-66
2021/05/22 06:44:43;;;;;;;;;;;12.10;99.90;;;;;;10528692;28;20037;-66
2021/05/22 06:49:45;;;;;;;;;;;12.50;99.90;;;;;;10494243;28;19978;-66
2021/05/22 06:54:46;;;;;;;;;;;12.40;99.90;;;;;;10494614;28;19924;-66
2021/05/22 06:59:48;;;;;;;;;;;12.50;99.90;;;;;;10501723;28;20031;-66
2021/05/22 07:04:50;;;;;;;;;;;12.40;99.90;;;;;;10512738;28;19924;-66
2021/05/22 07:09:52;;;;;;;;;;;12.70;99.90;;;;;;10510000;28;19928;-66
2021/05/22 07:14:53;;;;;;;;;;;12.70;99.90;;;;;;10487584;28;20019;-65
2021/05/22 07:19:55;;;;;;;;;;;13.20;99.90;;;;;;10487629;28;20454;-66
2021/05/22 07:24:58;;;;;;;;;;;13.30;99.90;;;;;;10526912;28;19931;-65
2021/05/22 07:30:00;;;;;;;;;;;13.20;99.90;;;;;;10501588;28;20014;-66
2021/05/22 07:35:03;;;;;;;;;;;13.00;99.90;;;;;;10487499;28;19960;-66
2021/05/22 07:40:06;;;;;;;;;;;12.60;99.90;;;;;;10504415;28;19931;-66
2021/05/22 07:45:08;;;;;;;;;;;12.40;99.90;;;;;;10518020;28;19995;-66
2021/05/22 07:50:11;;;;;;;;;;;12.40;99.90;;;;;;10516383;28;19925;-66
2021/05/22 07:55:12;;;;;;;;;;;12.40;99.90;;;;;;10512534;28;19995;-66
2021/05/22 08:00:15;;;;;;;;;;;12.20;99.90;;;;;;10527554;28;19982;-66
2021/05/22 08:05:16;;;;;;;;;;;11.70;99.90;;;;;;10510616;28;20010;-66
2021/05/22 08:10:18;;;;;;;;;;;12.00;99.90;;;;;;10497605;28;20011;-66
2021/05/22 08:15:20;;;;;;;;;;;12.50;99.90;;;;;;10487552;28;19968;-66
2021/05/22 08:20:22;;;;;;;;;;;13.10;99.90;;;;;;10491319;28;20226;-66
2021/05/22 08:25:24;;;;;;;;;;;13.30;99.90;;;;;;10474986;28;19925;-66
2021/05/22 08:30:25;;;;;;;;;;;12.90;99.90;;;;;;10517878;28;19928;-66
2021/05/22 08:35:29;;;;;;;;;;;12.60;99.90;;;;;;10480514;28;20019;-66
2021/05/22 08:40:31;;;;;;;;;;;12.40;99.90;;;;;;10501325;28;20023;-66
2021/05/22 08:45:33;;;;;;;;;;;12.60;99.90;;;;;;10504869;27;19982;-66
2021/05/22 08:50:35;;;;;;;;;;;12.70;99.90;;;;;;10495296;28;20008;-66
2021/05/22 08:55:38;;;;;;;;;;;13.30;99.90;;;;;;10490523;28;20016;-66
2021/05/22 09:00:40;;;;;;;;;;;13.60;99.90;;;;;;10507104;28;20018;-68
2021/05/22 09:05:44;;;;;;;;;;;13.70;99.90;;;;;;10519206;28;20198;-67
2021/05/22 09:10:47;;;;;;;;;;;13.40;99.90;;;;;;10497987;28;19960;-67
2021/05/22 09:15:55;;;;;;;;;;;13.20;99.90;;;;;;10522773;28;20003;-67
2021/05/22 09:20:59;;;;;;;;;;;13.10;99.90;;;;;;10517077;28;19928;-68
2021/05/22 09:26:19;;;;;;;;;;;13.50;99.90;;;;;;10496620;28;20443;-69
2021/05/22 09:31:24;;;;;;;;;;;13.50;99.90;;;;;;10502619;28;19936;-68
2021/05/22 09:36:26;;;;;;;;;;;13.20;99.90;;;;;;10501347;28;20024;-68
2021/05/22 09:41:28;;;;;;;;;;;13.20;99.90;;;;;;10489195;28;20015;-67
2021/05/22 09:46:30;;;;;;;;;;;13.80;99.90;;;;;;10490090;28;20007;-67
2021/05/22 09:51:32;;;;;;;;;;;14.20;99.20;;;;;;10488885;28;20019;-67
2021/05/22 09:56:34;;;;;;;;;;;15.20;96.30;;;;;;10488952;28;19971;-67
2021/05/22 10:01:42;;;;;;;;;;;15.40;93.00;;;;;;10489360;28;19979;-67
2021/05/22 10:06:44;;;;;;;;;;;15.30;93.20;;;;;;10487319;28;20011;-68
2021/05/22 10:12:06;;;;;;;;;;;15.40;92.20;;;;;;10488074;28;20003;-67
2021/05/22 10:17:10;;;;;;;;;;;15.70;91.90;;;;;;10487638;28;20197;-67
2021/05/22 10:22:12;;;;;;;;;;;15.60;90.30;;;;;;10488622;28;20019;-68
2021/05/22 10:27:14;;;;;;;;;;;15.80;87.10;;;;;;10486979;28;19962;-67
2021/05/22 10:32:17;;;;;;;;;;;16.00;83.40;;;;;;10488942;28;19937;-67
2021/05/22 10:37:57;;;;;;;;;;;16.10;80.80;;;;;;10486670;28;20396;-68
2021/05/22 10:43:00;;;;;;;;;;;16.20;77.80;;;;;;10440692;28;20027;-67
2021/05/22 10:48:03;;;;;;;;;;;16.10;82.60;;;;;;10445352;28;20381;-67
2021/05/22 10:53:20;;;;;;;;;;;16.30;81.20;;;;;;10449668;28;20333;-67
2021/05/22 10:58:22;;;;;;;;;;;16.70;77.10;;;;;;10487651;28;19993;-67
2021/05/22 11:03:24;;;;;;;;;;;16.30;74.40;;;;;;10487539;28;20020;-68
2021/05/22 11:08:29;;;;;;;;;;;15.80;70.80;;;;;;10487368;28;19964;-67
2021/05/22 11:13:31;;;;;;;;;;;14.80;86.10;;;;;;10487893;28;20448;-67
2021/05/22 11:18:32;;;;;;;;;;;13.90;95.30;;;;;;10493196;28;20023;-67
2021/05/22 11:23:59;;;;;;;;;;;13.50;99.90;;;;;;10495102;28;19960;-67
2021/05/22 11:29:02;;;;;;;;;;;14.40;99.90;;;;;;10495210;28;19928;-67
2021/05/22 11:34:22;;;;;;;;;;;14.90;99.40;;;;;;10495283;28;19979;-67
2021/05/22 11:39:36;;;;;;;;;;;15.00;94.90;;;;;;10495990;28;19924;-67
2021/05/22 11:44:50;;;;;;;;;;;15.40;92.90;;;;;;10495404;28;20007;-68
2021/05/22 11:49:52;;;;;;;;;;;15.80;87.80;;;;;;10527390;28;19968;-67
2021/05/22 11:54:54;;;;;;;;;;;16.10;80.90;;;;;;10493439;28;19979;-67
2021/05/22 11:59:56;;;;;;;;;;;16.20;76.50;;;;;;10494516;28;20007;-68
2021/05/22 12:04:58;;;;;;;;;;;16.10;74.10;;;;;;10493412;28;19925;-68
2021/05/22 12:10:08;;;;;;;;;;;16.30;72.80;;;;;;10490706;28;20349;-67
2021/05/22 12:15:23;;;;;;;;;;;16.30;70.40;;;;;;10490855;28;20116;-67
2021/05/22 12:20:26;;;;;;;;;;;16.20;78.40;;;;;;10492365;28;20462;-68
2021/05/22 12:25:29;;;;;;;;;;;16.40;77.50;;;;;;10487411;28;20058;-67
2021/05/22 12:30:31;;;;;;;;;;;16.10;75.10;;;;;;10492191;28;20035;-67
2021/05/22 12:35:33;;;;;;;;;;;16.00;75.80;;;;;;10491955;28;20312;-68
2021/05/22 12:40:48;;;;;;;;;;;16.20;74.60;;;;;;10492223;28;20388;-67
2021/05/22 12:45:50;;;;;;;;;;;16.30;74.90;;;;;;10492589;28;19946;-68
2021/05/22 12:50:52;;;;;;;;;;;16.60;73.80;;;;;;10492435;28;19970;-68
2021/05/22 12:56:04;;;;;;;;;;;16.40;68.00;;;;;;10492243;28;20015;-68
2021/05/22 13:01:16;;;;;;;;;;;16.60;69.50;;;;;;10491301;28;19934;-68
2021/05/22 13:06:28;;;;;;;;;;;16.70;68.00;;;;;;10450312;28;20016;-68
2021/05/22 13:11:29;;;;;;;;;;;16.80;67.60;;;;;;10450286;28;19968;-67
2021/05/22 13:16:31;;;;;;;;;;;16.30;68.80;;;;;;10449606;28;20377;-67
2021/05/22 13:21:36;;;;;;;;;;;16.10;68.30;;;;;;10449536;28;19968;-67
2021/05/22 13:26:38;;;;;;;;;;;15.80;71.30;;;;;;10468541;28;19928;-68
2021/05/22 13:31:42;;;;;;;;;;;15.70;71.00;;;;;;10490263;28;20336;-67
2021/05/22 13:36:43;;;;;;;;;;;15.60;71.80;;;;;;10489927;28;19928;-67
2021/05/22 13:41:46;;;;;;;;;;;15.60;73.40;;;;;;10490059;28;20447;-68
2021/05/22 13:46:49;;;;;;;;;;;15.70;73.40;;;;;;10489929;28;20368;-68
2021/05/22 13:51:51;;;;;;;;;;;15.90;75.90;;;;;;10489361;28;19925;-68
2021/05/22 13:56:53;;;;;;;;;;;16.20;76.10;;;;;;10488111;28;19966;-68
2021/05/22 14:01:54;;;;;;;;;;;16.30;74.10;;;;;;10488389;28;20014;-67
2021/05/22 14:06:56;;;;;;;;;;;16.20;73.20;;;;;;10488790;28;20350;-68
2021/05/22 14:11:58;;;;;;;;;;;16.00;74.30;;;;;;10488818;28;20015;-68
2021/05/22 14:17:00;;;;;;;;;;;16.10;74.30;;;;;;10488385;28;20016;-68
2021/05/22 14:22:02;;;;;;;;;;;16.40;73.90;;;;;;10488852;28;20008;-68
2021/05/22 14:27:04;;;;;;;;;;;16.40;75.50;;;;;;10488479;28;19928;-68
2021/05/22 14:32:06;;;;;;;;;;;16.50;76.50;;;;;;10488433;28;20015;-67
2021/05/22 14:37:08;;;;;;;;;;;16.70;73.50;;;;;;10486873;28;19975;-68
2021/05/22 14:42:10;;;;;;;;;;;16.70;69.40;;;;;;10488092;28;19924;-68
2021/05/22 14:47:12;;;;;;;;;;;16.90;70.00;;;;;;10487273;28;19959;-67
2021/05/22 14:52:14;;;;;;;;;;;16.80;67.10;;;;;;10487453;28;20436;-67
2021/05/22 14:57:16;;;;;;;;;;;16.70;66.00;;;;;;10487135;28;19924;-67
2021/05/22 15:02:18;;;;;;;;;;;16.70;66.60;;;;;;10486707;28;19932;-68
2021/05/22 15:07:20;;;;;;;;;;;16.70;65.60;;;;;;10487677;28;20007;-68
2021/05/22 15:12:22;;;;;;;;;;;16.60;65.80;;;;;;10487777;28;20007;-68
2021/05/22 15:17:24;;;;;;;;;;;16.80;64.10;;;;;;10486245;28;19928;-67
2021/05/22 15:22:26;;;;;;;;;;;17.00;65.00;;;;;;10487244;28;20444;-68
2021/05/22 15:27:29;;;;;;;;;;;17.30;61.90;;;;;;10485559;28;19924;-68
2021/05/22 15:32:31;;;;;;;;;;;17.40;60.40;;;;;;10486775;28;19931;-68
2021/05/22 15:37:33;;;;;;;;;;;17.30;59.90;;;;;;10486450;28;19932;-67
2021/05/22 15:42:35;;;;;;;;;;;17.00;57.60;;;;;;10487469;28;19986;-67
2021/05/22 15:58:12;;;;;;;;;;;16.70;63.00;;;;;;10485482;28;20342;-68
2021/05/22 16:03:41;;;;;;;;;;;16.70;63.70;;;;;;10487915;28;20355;-68
2021/05/22 16:08:43;;;;;;;;;;;16.70;62.40;;;;;;10493985;28;20348;-67
2021/05/22 16:13:44;;;;;;;;;;;16.50;60.90;;;;;;10493280;28;19934;-67
2021/05/22 16:18:46;;;;;;;;;;;16.80;60.10;;;;;;10493530;28;20412;-67
2021/05/22 16:23:48;;;;;;;;;;;16.80;59.20;;;;;;10493436;28;20007;-67
2021/05/22 16:28:50;;;;;;;;;;;16.60;58.80;;;;;;10491424;28;20392;-67
2021/05/22 16:33:52;;;;;;;;;;;16.00;68.90;;;;;;10525346;28;19963;-67
2021/05/22 16:39:02;;;;;;;;;;;15.70;83.30;;;;;;10523291;28;19924;-68
2021/05/22 16:44:04;;;;;;;;;;;15.50;88.70;;;;;;10491579;28;19944;-67
2021/05/22 16:49:06;;;;;;;;;;;15.50;93.20;;;;;;10492455;28;19963;-67
2021/05/22 16:54:08;;;;;;;;;;;14.90;91.90;;;;;;10491376;28;19934;-67
2021/05/22 16:59:09;;;;;;;;;;;14.50;94.50;;;;;;10491278;28;20023;-67
2021/05/22 17:04:11;;;;;;;;;;;14.20;94.40;;;;;;10490928;28;20136;-67
2021/05/22 17:09:13;;;;;;;;;;;13.80;94.20;;;;;;10491744;28;20019;-67
2021/05/22 17:14:15;;;;;;;;;;;13.50;99.90;;;;;;10490059;28;20011;-67
2021/05/22 17:19:17;;;;;;;;;;;13.30;99.90;;;;;;10491461;28;19968;-67
2021/05/22 17:24:20;;;;;;;;;;;13.30;99.90;;;;;;10490033;28;20039;-67
2021/05/22 17:29:22;;;;;;;;;;;13.60;99.90;;;;;;10489246;28;20403;-67
2021/05/22 17:34:24;;;;;;;;;;;14.00;99.90;;;;;;10490872;28;19999;-67
2021/05/22 17:39:26;;;;;;;;;;;14.00;99.90;;;;;;10489462;28;19935;-67
2021/05/22 17:44:28;;;;;;;;;;;14.40;99.90;;;;;;10489853;28;19925;-67
2021/05/22 17:49:29;;;;;;;;;;;14.40;99.90;;;;;;10490233;28;19960;-67
2021/05/22 17:54:31;;;;;;;;;;;14.10;99.90;;;;;;10489508;28;20011;-68
2021/05/22 17:59:34;;;;;;;;;;;13.90;99.90;;;;;;10489316;28;20023;-67
2021/05/22 18:04:38;;;;;;;;;;;13.80;99.90;;;;;;10489328;28;19924;-67
2021/05/22 18:09:40;;;;;;;;;;;13.50;99.90;;;;;;10487117;28;20400;-67
2021/05/22 18:14:42;;;;;;;;;;;13.20;99.90;;;;;;10511558;28;20055;-67
2021/05/22 18:19:43;;;;;;;;;;;13.00;99.90;;;;;;10488941;28;19931;-67
2021/05/22 18:24:45;;;;;;;;;;;13.00;99.90;;;;;;10489265;28;20015;-67
2021/05/22 18:29:53;;;;;;;;;;;12.70;99.90;;;;;;10487294;28;19971;-67
2021/05/22 18:34:55;;;;;;;;;;;12.30;99.90;;;;;;10488634;28;20019;-67
2021/05/22 18:39:57;;;;;;;;;;;11.70;99.90;;;;;;10488136;28;20015;-67
2021/05/22 18:44:58;;;;;;;;;;;11.20;99.90;;;;;;10486805;28;20376;-67
2021/05/22 18:50:00;;;;;;;;;;;11.10;99.90;;;;;;10487500;28;19925;-67
2021/05/22 18:55:03;;;;;;;;;;;11.10;99.90;;;;;;10487079;28;20553;-67
2021/05/22 19:00:10;;;;;;;;;;;11.10;99.90;;;;;;10486182;28;19974;-67
2021/05/22 19:05:12;;;;;;;;;;;11.20;99.90;;;;;;10488114;28;20015;-67
2021/05/22 19:10:17;;;;;;;;;;;11.00;99.90;;;;;;10487481;28;20019;-67
2021/05/22 19:15:21;;;;;;;;;;;10.60;99.90;;;;;;10487217;28;20046;-67
2021/05/22 19:20:22;;;;;;;;;;;10.60;99.90;;;;;;10487227;28;19924;-67
2021/05/22 19:25:24;;;;;;;;;;;10.70;99.90;;;;;;10486629;28;20439;-67
2021/05/22 19:30:26;;;;;;;;;;;10.70;99.90;;;;;;10484072;28;19928;-67
2021/05/22 19:35:28;;;;;;;;;;;10.70;99.90;;;;;;10487393;28;19976;-67
2021/05/22 19:40:30;;;;;;;;;;;10.60;99.90;;;;;;10493615;28;20010;-67
2021/05/22 19:45:32;;;;;;;;;;;10.50;99.90;;;;;;10494908;28;19971;-67
2021/05/22 19:50:34;;;;;;;;;;;10.20;99.90;;;;;;10494146;28;20349;-67
2021/05/22 19:55:35;;;;;;;;;;;10.00;99.90;;;;;;10494404;28;19929;-67
2021/05/22 20:00:39;;;;;;;;;;;9.90;99.90;;;;;;10493303;28;19935;-67
2021/05/22 20:05:41;;;;;;;;;;;9.90;99.90;;;;;;10494052;28;20024;-67
2021/05/22 20:10:42;;;;;;;;;;;10.10;99.90;;;;;;10494861;28;19935;-67
2021/05/22 20:15:44;;;;;;;;;;;10.10;99.90;;;;;;10492489;28;20295;-67
2021/05/22 20:20:46;;;;;;;;;;;10.20;99.90;;;;;;10492362;28;19989;-67
2021/05/22 20:25:49;;;;;;;;;;;10.30;99.90;;;;;;10493438;28;19928;-67
2021/05/22 20:30:51;;;;;;;;;;;10.20;99.90;;;;;;10492608;28;20004;-67
2021/05/22 20:35:53;;;;;;;;;;;10.00;99.90;;;;;;10493555;28;19999;-67
2021/05/22 20:40:55;;;;;;;;;;;9.80;99.90;;;;;;10492527;28;19935;-67
2021/05/22 20:45:56;;;;;;;;;;;9.60;99.90;;;;;;10496231;28;20322;-67
2021/05/22 20:50:58;;;;;;;;;;;9.60;99.90;;;;;;10490219;28;19930;-67
2021/05/22 20:56:00;;;;;;;;;;;9.70;99.90;;;;;;10489326;28;19925;-67
2021/05/22 21:01:03;;;;;;;;;;;9.80;99.90;;;;;;10490319;28;20015;-67
2021/05/22 21:06:05;;;;;;;;;;;9.80;99.90;;;;;;10491785;28;20228;-67
2021/05/22 21:11:08;;;;;;;;;;;9.90;99.90;;;;;;10492006;28;19930;-67
2021/05/22 21:16:10;;;;;;;;;;;10.00;99.90;;;;;;10490402;28;19977;-67
2021/05/22 21:21:12;;;;;;;;;;;10.00;99.90;;;;;;10490441;28;20031;-67
2021/05/22 21:26:14;;;;;;;;;;;10.00;99.90;;;;;;10493945;28;20397;-68
2021/05/22 21:31:16;;;;;;;;;;;10.00;99.90;;;;;;10504335;28;20042;-67
2021/05/22 21:36:17;;;;;;;;;;;9.70;99.90;;;;;;10530766;28;20006;-66
2021/05/22 21:41:19;;;;;;;;;;;9.50;99.90;;;;;;10512699;28;20035;-66
2021/05/22 21:46:23;;;;;;;;;;;9.50;99.90;;;;;;10489869;28;20662;-66
2021/05/22 21:51:25;;;;;;;;;;;9.10;99.90;;;;;;10490906;28;19970;-66
2021/05/22 21:56:27;;;;;;;;;;;9.00;99.90;;;;;;10507818;28;20449;-66
2021/05/22 22:01:29;;;;;;;;;;;8.90;99.90;;;;;;10516191;28;20015;-66
2021/05/22 22:06:31;;;;;;;;;;;8.90;99.90;;;;;;10486035;28;19924;-66
2021/05/22 22:11:35;;;;;;;;;;;8.80;99.90;;;;;;10503434;28;19924;-66
2021/05/22 22:16:38;;;;;;;;;;;8.80;99.90;;;;;;10471008;28;19964;-67
2021/05/22 22:21:40;;;;;;;;;;;8.70;99.90;;;;;;10503653;28;20019;-66
2021/05/22 22:26:42;;;;;;;;;;;8.70;99.90;;;;;;10487162;28;20300;-66
2021/05/22 22:31:44;;;;;;;;;;;8.60;99.90;;;;;;10486281;28;19928;-66
2021/05/22 22:36:46;;;;;;;;;;;8.50;99.90;;;;;;10518003;28;20027;-66
2021/05/22 22:41:48;;;;;;;;;;;8.40;99.90;;;;;;10497943;28;19964;-66
2021/05/22 22:46:50;;;;;;;;;;;8.30;99.90;;;;;;10491555;28;19957;-66
2021/05/22 22:51:52;;;;;;;;;;;8.30;99.90;;;;;;10503158;28;19928;-66
2021/05/22 22:56:53;;;;;;;;;;;8.30;99.90;;;;;;10503939;28;19952;-66
2021/05/22 23:01:55;;;;;;;;;;;8.30;99.90;;;;;;10451767;28;20291;-66
2021/05/22 23:06:59;;;;;;;;;;;8.20;99.90;;;;;;10490221;28;20435;-66
2021/05/22 23:12:04;;;;;;;;;;;8.20;99.90;;;;;;10522870;28;19951;-66
2021/05/22 23:17:06;;;;;;;;;;;8.10;99.90;;;;;;10487960;28;19932;-66
2021/05/22 23:22:08;;;;;;;;;;;8.00;99.90;;;;;;10489366;28;20098;-66
2021/05/22 23:27:10;;;;;;;;;;;7.80;99.90;;;;;;10513729;28;20019;-66
2021/05/22 23:32:12;;;;;;;;;;;7.80;99.90;;;;;;10525213;28;19924;-66
2021/05/22 23:37:13;;;;;;;;;;;7.60;99.90;;;;;;10487811;28;20019;-66
2021/05/22 23:42:15;;;;;;;;;;;7.50;99.90;;;;;;10525708;28;19959;-66
2021/05/22 23:47:17;;;;;;;;;;;7.50;99.90;;;;;;10498296;28;19970;-66
2021/05/22 23:52:21;;;;;;;;;;;7.50;99.90;;;;;;10489076;28;19978;-66
2021/05/22 23:57:23;;;;;;;;;;;7.40;99.90;;;;;;10502750;28;20027;-66
